This is the latest recevied weather packets stored in our database for station/object KO5MO-4. If no packets are shown the sender has not sent any weather packets the latest 10 day(s).
| Time | Temp. | Humidity | Pressure | Rain* | Wind** | Luminosity | Snow |
|---|---|---|---|---|---|---|---|
| 1777308067 | 25.56° C | 21% | 1011.5 hPa | 0 mm | - | - | - |
| 1777307466 | 25° C | 22% | 1011.4 hPa | 0 mm | - | - | - |
| 1777305666 | 28.33° C | 20% | 1011.2 hPa | 0 mm | - | - | - |
| 1777305066 | 27.22° C | 21% | 1011.2 hPa | 0 mm | - | - | - |
| 1777304166 | 28.89° C | 20% | 1011.2 hPa | 0 mm | - | - | - |
| 1777302966 | 27.22° C | 22% | 1011.1 hPa | 0 mm | - | - | - |
| 1777302066 | 25.56° C | 23% | 1011.1 hPa | 0 mm | - | - | - |
| 1777301766 | 25° C | 24% | 1011.1 hPa | 0 mm | - | - | - |
| 1777301466 | 23.89° C | 25% | 1011.2 hPa | 0 mm | - | - | - |
| 1777301166 | 23.89° C | 25% | 1011.2 hPa | 0 mm | - | - | - |
| 1777299966 | 21.11° C | 30% | 1011 hPa | 0 mm | - | - | - |
| 1777299366 | 20.56° C | 32% | 1010.9 hPa | 0 mm | - | - | - |
| 1777298766 | 18.89° C | 35% | 1010.7 hPa | 0 mm | - | - | - |
| 1777298466 | 17.78° C | 36% | 1010.6 hPa | 0 mm | - | - | - |
| 1777298166 | 17.22° C | 38% | 1010.7 hPa | 0 mm | - | - | - |
| 1777297866 | 17.22° C | 38% | 1010.6 hPa | 0 mm | - | - | - |
| 1777297566 | 17.22° C | 38% | 1010.5 hPa | 0 mm | - | - | - |
| 1777297266 | 16.67° C | 39% | 1010.5 hPa | 0 mm | - | - | - |
| 1777296966 | 15.56° C | 41% | 1010.5 hPa | 0 mm | - | - | - |
| 1777296366 | 13.33° C | 48% | 1010.4 hPa | 0 mm | - | - | - |
| 1777295766 | 12.22° C | 51% | 1010.3 hPa | 0 mm | - | - | - |
| 1777294866 | 11.67° C | 52% | 1010.2 hPa | 0 mm | - | - | - |
| 1777293366 | 11.67° C | 49% | 1009.8 hPa | 0 mm | - | - | - |
| 1777293066 | 11.67° C | 49% | 1009.8 hPa | 0 mm | - | - | - |
| 1777292766 | 11.67° C | 49% | 1009.7 hPa | 0 mm | - | - | - |
* Rain latest hour (hover to see other rain measurements)
** Current wind speed in m/s (hover to see current wind gust speed)